Terminal Aerodrome Forecast
Issued by NWS

Home | Current Version | Previous Version | Text Only | Print | Product List | Glossary On
Versions: 1 2 3 4 5 6 7 8 9 10 11 12
653
FTUS46 KMTR 201720
TAFMRY
TAF
KMRY 201720Z 2018/2118 VRB04KT P6SM SCT050 BKN090 BKN200
     FM202100 24005KT P6SM SCT040 SCT080 BKN180
     FM210100 VRB02KT P6SM FEW050 BKN200
     FM211000 09003KT P6SM OVC200=

USA.gov is the U.S. government's official web portal to all federal, state and local government web resources and services.